Time;durP1;ratioP1;P1;durP2;ratioP2;P2;SDS_P1;SDS_P2;PMS_P1;PMS_P2;Temp;Humidity;BMP_temperature;BMP_pressure;BME280_temperature;BME280_humidity;BME280_pressure;Samples;Min_cycle;Max_cycle;Signal;HPM_P1;HPM_P2
2022/01/01 00:01:52;;;;;;;10.07;6.60;;;;;;;;;;5083322;28;20516;-79
2022/01/01 00:04:18;;;;;;;10.50;5.88;;;;;;;;;;5083498;28;20032;-80
2022/01/01 00:06:43;;;;;;;9.25;5.72;;;;;;;;;;5084060;28;20050;-80
2022/01/01 00:09:08;;;;;;;10.68;7.00;;;;;;;;;;5082255;28;20382;-77
2022/01/01 00:11:34;;;;;;;8.45;4.43;;;;;;;;;;5082374;28;20028;-78
2022/01/01 00:13:59;;;;;;;8.27;4.75;;;;;;;;;;5084095;28;20021;-79
2022/01/01 00:16:24;;;;;;;10.93;5.78;;;;;;;;;;5083780;28;20081;-79
2022/01/01 00:18:50;;;;;;;13.57;7.35;;;;;;;;;;5083303;28;20031;-77
2022/01/01 00:21:16;;;;;;;10.00;5.55;;;;;;;;;;5081953;28;20379;-79
2022/01/01 00:23:41;;;;;;;10.38;5.68;;;;;;;;;;5082467;28;20036;-79
2022/01/01 00:26:06;;;;;;;6.60;4.38;;;;;;;;;;5081134;28;20064;-80
2022/01/01 00:28:31;;;;;;;8.00;4.80;;;;;;;;;;5083431;28;20025;-79
2022/01/01 00:30:57;;;;;;;8.70;4.97;;;;;;;;;;5080997;28;20781;-79
2022/01/01 00:33:22;;;;;;;10.05;5.38;;;;;;;;;;5081834;28;20028;-80
2022/01/01 00:35:47;;;;;;;8.52;5.60;;;;;;;;;;5082740;28;20039;-80
2022/01/01 00:38:13;;;;;;;7.63;4.57;;;;;;;;;;5082628;28;20087;-79
2022/01/01 00:40:38;;;;;;;6.43;4.53;;;;;;;;;;5082330;28;20485;-80
2022/01/01 00:43:03;;;;;;;6.65;4.28;;;;;;;;;;5082116;28;20024;-79
2022/01/01 00:45:29;;;;;;;7.95;4.75;;;;;;;;;;5080617;28;20442;-80
2022/01/01 00:47:54;;;;;;;8.15;4.35;;;;;;;;;;5081325;28;20028;-79
2022/01/01 00:50:19;;;;;;;7.20;4.35;;;;;;;;;;5082121;28;20025;-80
2022/01/01 00:52:50;;;;;;;7.82;3.90;;;;;;;;;;5080750;28;20474;-80
2022/01/01 00:55:15;;;;;;;7.68;4.07;;;;;;;;;;5081514;28;20084;-80
2022/01/01 00:57:40;;;;;;;5.63;3.70;;;;;;;;;;5080226;28;20063;-78
2022/01/01 01:00:06;;;;;;;4.90;3.28;;;;;;;;;;5079420;28;20119;-79
2022/01/01 01:02:32;;;;;;;4.97;3.75;;;;;;;;;;5082142;28;20119;-79
2022/01/01 01:04:58;;;;;;;6.33;3.23;;;;;;;;;;5081412;28;20040;-79
2022/01/01 01:07:23;;;;;;;6.45;3.13;;;;;;;;;;5079396;28;20322;-80
2022/01/01 01:09:49;;;;;;;8.52;4.38;;;;;;;;;;5080553;28;20024;-77
2022/01/01 01:12:20;;;;;;;10.07;3.65;;;;;;;;;;5080254;28;20131;-79
2022/01/01 01:14:46;;;;;;;6.40;3.78;;;;;;;;;;5079090;28;20020;-80
2022/01/01 01:17:11;;;;;;;13.30;6.25;;;;;;;;;;5078250;28;20378;-78
2022/01/01 01:19:37;;;;;;;6.20;4.32;;;;;;;;;;5078748;28;20016;-79
2022/01/01 01:22:02;;;;;;;8.50;5.07;;;;;;;;;;5078934;28;20055;-79
2022/01/01 01:24:27;;;;;;;5.63;3.83;;;;;;;;;;5078456;28;20021;-79
2022/01/01 01:26:53;;;;;;;11.32;4.38;;;;;;;;;;5078937;28;20035;-79
2022/01/01 01:29:19;;;;;;;5.15;3.72;;;;;;;;;;5079617;28;20035;-80
2022/01/01 01:31:46;;;;;;;13.43;3.67;;;;;;;;;;5078462;28;20051;-79
2022/01/01 01:34:11;;;;;;;4.68;3.25;;;;;;;;;;5079728;28;20390;-80
2022/01/01 01:36:38;;;;;;;8.02;3.90;;;;;;;;;;5077336;28;20020;-79
2022/01/01 01:39:04;;;;;;;5.43;3.30;;;;;;;;;;5076873;28;20035;-79
2022/01/01 01:41:31;;;;;;;6.47;3.22;;;;;;;;;;5078676;28;20025;-80
2022/01/01 01:43:58;;;;;;;7.65;3.67;;;;;;;;;;5078537;28;20013;-79
2022/01/01 01:46:25;;;;;;;7.00;3.28;;;;;;;;;;5078538;28;20031;-79
2022/01/01 01:48:50;;;;;;;7.38;3.80;;;;;;;;;;5081635;28;20039;-80
2022/01/01 01:51:16;;;;;;;7.70;3.35;;;;;;;;;;5081084;28;20478;-80
2022/01/01 01:53:41;;;;;;;5.55;3.60;;;;;;;;;;5081017;28;20032;-79
2022/01/01 01:56:06;;;;;;;4.85;2.92;;;;;;;;;;5080012;28;20443;-78
2022/01/01 01:58:33;;;;;;;8.20;4.07;;;;;;;;;;5080979;28;20428;-80
2022/01/01 02:03:36;;;;;;;6.55;4.00;;;;;;;;;;5079778;28;20027;-78
2022/01/01 02:06:04;;;;;;;9.02;4.18;;;;;;;;;;5081727;28;20028;-79
2022/01/01 02:08:29;;;;;;;6.53;3.60;;;;;;;;;;5080346;28;20051;-80
2022/01/01 02:10:54;;;;;;;7.90;3.50;;;;;;;;;;5080510;28;20032;-77
2022/01/01 02:13:29;;;;;;;6.45;3.63;;;;;;;;;;5079158;28;20363;-79
2022/01/01 02:18:20;;;;;;;5.72;3.42;;;;;;;;;;5080629;28;20029;-79
2022/01/01 02:20:49;;;;;;;6.57;3.65;;;;;;;;;;5080074;28;20036;-79
2022/01/01 02:23:24;;;;;;;5.25;3.65;;;;;;;;;;5079601;28;20024;-79
2022/01/01 02:25:51;;;;;;;7.38;3.83;;;;;;;;;;5082384;28;20054;-79
2022/01/01 02:28:16;;;;;;;10.15;4.00;;;;;;;;;;5083846;28;20020;-79
2022/01/01 02:30:42;;;;;;;6.88;4.38;;;;;;;;;;5082037;28;20031;-79
2022/01/01 02:33:07;;;;;;;5.57;3.75;;;;;;;;;;5083176;28;20028;-78
2022/01/01 02:35:33;;;;;;;5.65;4.00;;;;;;;;;;5082079;28;20058;-78
2022/01/01 02:37:58;;;;;;;10.77;5.90;;;;;;;;;;5084677;28;20043;-78
2022/01/01 02:40:23;;;;;;;6.88;3.92;;;;;;;;;;5083520;28;20084;-79
2022/01/01 02:42:51;;;;;;;9.93;3.97;;;;;;;;;;5083898;28;20103;-80
2022/01/01 02:45:16;;;;;;;8.27;3.70;;;;;;;;;;5085051;28;20027;-81
2022/01/01 02:47:42;;;;;;;7.03;3.78;;;;;;;;;;5085059;28;20029;-80
2022/01/01 02:50:08;;;;;;;5.95;3.30;;;;;;;;;;5084487;28;20058;-80
2022/01/01 02:52:34;;;;;;;6.05;3.70;;;;;;;;;;5084536;28;20024;-79
2022/01/01 02:54:59;;;;;;;9.05;3.25;;;;;;;;;;5084451;28;20495;-78
2022/01/01 02:57:24;;;;;;;6.10;3.90;;;;;;;;;;5085111;28;20024;-79
2022/01/01 02:59:50;;;;;;;11.45;6.63;;;;;;;;;;5083479;28;20058;-79
2022/01/01 03:02:15;;;;;;;5.80;3.72;;;;;;;;;;5084044;28;20020;-80
2022/01/01 03:04:41;;;;;;;6.65;3.58;;;;;;;;;;5083544;28;20016;-80
2022/01/01 03:07:07;;;;;;;5.60;3.40;;;;;;;;;;5084409;28;20412;-79
2022/01/01 03:09:35;;;;;;;6.05;3.20;;;;;;;;;;5086412;28;20020;-79
2022/01/01 03:12:05;;;;;;;6.28;3.28;;;;;;;;;;5086577;28;20031;-80
2022/01/01 03:14:31;;;;;;;4.80;3.03;;;;;;;;;;5088725;28;20044;-80
2022/01/01 03:16:56;;;;;;;5.45;3.28;;;;;;;;;;5088607;28;20024;-79
2022/01/01 03:19:22;;;;;;;5.30;3.13;;;;;;;;;;5087456;28;20020;-80
2022/01/01 03:21:47;;;;;;;5.65;3.10;;;;;;;;;;5091743;28;20336;-78
2022/01/01 03:24:12;;;;;;;5.78;3.20;;;;;;;;;;5093598;28;20064;-77
2022/01/01 03:26:37;;;;;;;5.50;3.55;;;;;;;;;;5092080;28;20119;-78
2022/01/01 03:29:03;;;;;;;12.57;3.53;;;;;;;;;;5092231;28;20111;-79
2022/01/01 03:31:28;;;;;;;6.00;3.22;;;;;;;;;;5084565;28;20260;-79
2022/01/01 03:33:54;;;;;;;6.07;3.00;;;;;;;;;;5085464;28;20043;-79
2022/01/01 03:36:19;;;;;;;5.15;3.25;;;;;;;;;;5083669;28;20037;-79
2022/01/01 03:38:44;;;;;;;7.93;3.58;;;;;;;;;;5085306;28;20089;-79
2022/01/01 03:41:10;;;;;;;3.77;2.87;;;;;;;;;;5085346;28;20025;-80
2022/01/01 03:43:35;;;;;;;6.40;2.88;;;;;;;;;;5088578;28;20257;-80
2022/01/01 03:46:00;;;;;;;4.55;2.90;;;;;;;;;;5085776;28;20488;-80
2022/01/01 03:48:26;;;;;;;5.22;2.80;;;;;;;;;;5084580;28;20112;-80
2022/01/01 03:50:51;;;;;;;5.30;3.22;;;;;;;;;;5084278;28;20024;-80
2022/01/01 03:53:16;;;;;;;6.18;3.25;;;;;;;;;;5084769;28;20472;-79
2022/01/01 03:55:42;;;;;;;7.22;3.38;;;;;;;;;;5083864;28;20099;-79
2022/01/01 03:58:07;;;;;;;5.65;3.03;;;;;;;;;;5083961;28;20020;-79
2022/01/01 04:00:33;;;;;;;6.20;3.17;;;;;;;;;;5084519;28;20486;-79
2022/01/01 04:03:08;;;;;;;4.95;2.80;;;;;;;;;;5083488;28;20272;-80
2022/01/01 04:05:35;;;;;;;4.65;2.83;;;;;;;;;;5083603;28;20029;-80
2022/01/01 04:08:01;;;;;;;6.10;3.17;;;;;;;;;;5083664;28;20029;-80
2022/01/01 04:10:29;;;;;;;4.63;2.78;;;;;;;;;;5084211;28;20032;-78
2022/01/01 04:12:54;;;;;;;4.88;2.80;;;;;;;;;;5083052;28;20029;-80
2022/01/01 04:15:19;;;;;;;6.90;2.80;;;;;;;;;;5083806;28;20123;-80
2022/01/01 04:17:44;;;;;;;5.28;2.78;;;;;;;;;;5083927;28;20277;-79
2022/01/01 04:20:10;;;;;;;5.25;2.60;;;;;;;;;;5082048;28;20024;-78
2022/01/01 04:22:35;;;;;;;5.93;2.90;;;;;;;;;;5082967;28;20071;-79
2022/01/01 04:25:00;;;;;;;4.55;2.78;;;;;;;;;;5083566;28;20020;-80
2022/01/01 04:27:26;;;;;;;5.28;2.85;;;;;;;;;;5084131;28;20367;-79
2022/01/01 04:29:51;;;;;;;6.53;3.00;;;;;;;;;;5081134;28;20031;-79
2022/01/01 04:32:18;;;;;;;5.70;2.57;;;;;;;;;;5083342;28;20032;-78
2022/01/01 04:34:43;;;;;;;4.88;2.78;;;;;;;;;;5081359;28;20280;-79
2022/01/01 04:37:12;;;;;;;6.20;2.90;;;;;;;;;;5082855;28;20386;-80
2022/01/01 04:39:39;;;;;;;5.50;2.60;;;;;;;;;;5082648;28;20113;-79
2022/01/01 04:42:04;;;;;;;5.03;2.42;;;;;;;;;;5082888;28;20040;-78
2022/01/01 04:44:30;;;;;;;5.43;2.75;;;;;;;;;;5081850;28;20024;-80
2022/01/01 04:46:56;;;;;;;3.78;2.60;;;;;;;;;;5081936;28;20024;-80
2022/01/01 04:49:22;;;;;;;5.13;2.40;;;;;;;;;;5081695;28;20016;-79
2022/01/01 04:51:48;;;;;;;2.90;2.20;;;;;;;;;;5082383;28;20021;-79
2022/01/01 04:54:16;;;;;;;6.15;2.53;;;;;;;;;;5082519;28;20536;-79
2022/01/01 04:56:47;;;;;;;4.63;2.40;;;;;;;;;;5082402;28;20397;-78
2022/01/01 04:59:13;;;;;;;4.35;2.35;;;;;;;;;;5081432;28;20029;-78
2022/01/01 05:01:40;;;;;;;3.65;2.17;;;;;;;;;;5082352;28;20035;-79
2022/01/01 05:04:06;;;;;;;4.40;2.85;;;;;;;;;;5082058;28;20056;-79
2022/01/01 05:06:31;;;;;;;4.53;2.70;;;;;;;;;;5082523;28;20027;-78
2022/01/01 05:08:57;;;;;;;4.85;2.65;;;;;;;;;;5080968;28;20115;-79
2022/01/01 05:11:22;;;;;;;4.25;2.30;;;;;;;;;;5082003;28;20043;-79
2022/01/01 05:13:47;;;;;;;5.13;2.60;;;;;;;;;;5080921;28;20070;-79
2022/01/01 05:16:17;;;;;;;6.20;2.40;;;;;;;;;;5080871;28;20265;-79
2022/01/01 05:18:42;;;;;;;3.45;2.50;;;;;;;;;;5079781;28;20024;-80
2022/01/01 05:21:07;;;;;;;3.72;2.40;;;;;;;;;;5079635;28;20428;-80
2022/01/01 05:23:33;;;;;;;4.60;2.33;;;;;;;;;;5081706;28;20035;-79
2022/01/01 05:25:58;;;;;;;4.65;2.30;;;;;;;;;;5080639;28;20052;-79
2022/01/01 05:28:23;;;;;;;3.88;2.40;;;;;;;;;;5081447;28;20028;-79
2022/01/01 05:30:49;;;;;;;6.63;2.75;;;;;;;;;;5079621;28;20393;-79
2022/01/01 05:33:15;;;;;;;2.80;2.20;;;;;;;;;;5081266;28;20025;-79
2022/01/01 05:35:40;;;;;;;4.63;2.28;;;;;;;;;;5081775;28;20025;-80
2022/01/01 05:38:06;;;;;;;4.57;2.40;;;;;;;;;;5081150;28;20094;-79
2022/01/01 05:40:31;;;;;;;3.87;2.37;;;;;;;;;;5081286;28;20085;-79
2022/01/01 05:42:56;;;;;;;3.78;2.40;;;;;;;;;;5079479;28;20256;-79
2022/01/01 05:45:22;;;;;;;5.13;2.78;;;;;;;;;;5080935;28;20017;-79
2022/01/01 05:47:47;;;;;;;3.33;2.28;;;;;;;;;;5080951;28;20545;-79
2022/01/01 05:50:12;;;;;;;5.30;2.43;;;;;;;;;;5080228;28;20032;-79
2022/01/01 05:52:37;;;;;;;4.13;2.15;;;;;;;;;;5078837;28;20268;-79
2022/01/01 05:55:03;;;;;;;3.35;2.20;;;;;;;;;;5080625;28;20028;-79
2022/01/01 05:57:28;;;;;;;3.28;2.28;;;;;;;;;;5080333;28;20496;-80
2022/01/01 05:59:53;;;;;;;5.07;2.40;;;;;;;;;;5081163;28;20029;-79
2022/01/01 06:02:19;;;;;;;4.35;2.55;;;;;;;;;;5080227;28;20020;-79
2022/01/01 06:04:44;;;;;;;7.07;2.28;;;;;;;;;;5080419;28;20496;-80
2022/01/01 06:07:10;;;;;;;3.23;2.50;;;;;;;;;;5081621;28;20024;-80
2022/01/01 06:09:36;;;;;;;2.90;2.15;;;;;;;;;;5080975;28;20265;-81
2022/01/01 06:12:01;;;;;;;4.32;2.65;;;;;;;;;;5080985;28;20024;-80
2022/01/01 06:14:26;;;;;;;3.25;2.08;;;;;;;;;;5081203;28;20029;-79
2022/01/01 06:16:51;;;;;;;4.32;2.30;;;;;;;;;;5081638;28;20029;-79
2022/01/01 06:19:17;;;;;;;5.43;2.60;;;;;;;;;;5081860;28;20093;-79
2022/01/01 06:21:42;;;;;;;3.70;2.40;;;;;;;;;;5082188;28;20253;-78
2022/01/01 06:24:07;;;;;;;4.37;2.67;;;;;;;;;;5081602;28;20025;-79
2022/01/01 06:26:32;;;;;;;3.00;2.05;;;;;;;;;;5080938;28;20311;-78
2022/01/01 06:28:58;;;;;;;5.90;2.72;;;;;;;;;;5082131;28;20085;-80
2022/01/01 06:31:23;;;;;;;3.92;2.30;;;;;;;;;;5082459;28;20452;-80
2022/01/01 06:33:49;;;;;;;4.75;2.33;;;;;;;;;;5081839;28;20370;-79
2022/01/01 06:36:17;;;;;;;3.88;2.20;;;;;;;;;;5082771;28;20083;-80
2022/01/01 06:38:43;;;;;;;4.28;2.20;;;;;;;;;;5081450;28;20078;-80
2022/01/01 06:41:09;;;;;;;3.13;2.35;;;;;;;;;;5082584;28;20028;-79
2022/01/01 06:43:34;;;;;;;4.95;2.35;;;;;;;;;;5081440;28;20078;-79
2022/01/01 06:45:59;;;;;;;3.03;1.85;;;;;;;;;;5081427;28;20043;-79
2022/01/01 06:48:24;;;;;;;3.55;2.22;;;;;;;;;;5081330;28;20031;-79
2022/01/01 06:50:51;;;;;;;5.10;2.17;;;;;;;;;;5081214;28;20054;-79
2022/01/01 06:53:17;;;;;;;3.88;2.25;;;;;;;;;;5081774;28;20017;-80
2022/01/01 06:55:42;;;;;;;3.67;2.00;;;;;;;;;;5080376;28;20029;-80
2022/01/01 06:58:08;;;;;;;5.82;2.15;;;;;;;;;;5081462;28;20025;-80
2022/01/01 07:00:34;;;;;;;3.60;2.10;;;;;;;;;;5080371;28;20025;-78
2022/01/01 07:02:59;;;;;;;5.35;2.13;;;;;;;;;;5079714;28;20056;-79
2022/01/01 07:05:25;;;;;;;2.90;1.90;;;;;;;;;;5081715;28;20107;-80
2022/01/01 07:07:50;;;;;;;3.78;2.00;;;;;;;;;;5080327;28;20289;-80
2022/01/01 07:10:15;;;;;;;4.23;2.10;;;;;;;;;;5082463;28;20025;-80
2022/01/01 07:12:41;;;;;;;3.05;1.90;;;;;;;;;;5085143;28;20300;-80
2022/01/01 07:15:08;;;;;;;3.03;2.05;;;;;;;;;;5085460;28;20020;-80
2022/01/01 07:17:33;;;;;;;3.50;2.10;;;;;;;;;;5082841;28;20051;-79
2022/01/01 07:19:59;;;;;;;4.70;2.13;;;;;;;;;;5082814;28;20021;-79
2022/01/01 07:22:24;;;;;;;2.90;1.83;;;;;;;;;;5084327;28;20472;-78
2022/01/01 07:24:49;;;;;;;2.97;1.70;;;;;;;;;;5082399;28;20016;-80
2022/01/01 07:27:15;;;;;;;4.93;2.00;;;;;;;;;;5084201;28;20092;-78
2022/01/01 07:29:41;;;;;;;2.90;1.70;;;;;;;;;;5083601;28;20025;-78
2022/01/01 07:32:07;;;;;;;3.50;1.75;;;;;;;;;;5084440;28;20036;-79
2022/01/01 07:34:32;;;;;;;4.00;1.90;;;;;;;;;;5083854;28;20032;-79
2022/01/01 07:36:57;;;;;;;2.70;1.88;;;;;;;;;;5083578;28;20470;-79
2022/01/01 07:39:22;;;;;;;2.53;1.67;;;;;;;;;;5084214;28;20035;-80
2022/01/01 07:41:48;;;;;;;4.47;1.75;;;;;;;;;;5084311;28;20032;-82
2022/01/01 07:44:13;;;;;;;5.18;1.88;;;;;;;;;;5082990;28;20402;-80
2022/01/01 07:46:39;;;;;;;4.45;1.88;;;;;;;;;;5084234;28;20035;-80
2022/01/01 07:49:04;;;;;;;2.92;1.55;;;;;;;;;;5083727;28;20028;-78
2022/01/01 07:51:29;;;;;;;3.35;1.80;;;;;;;;;;5083051;28;20074;-80
2022/01/01 07:53:55;;;;;;;4.33;1.77;;;;;;;;;;5082647;28;20060;-79
2022/01/01 07:56:20;;;;;;;2.33;1.50;;;;;;;;;;5083895;28;20272;-80
2022/01/01 07:58:45;;;;;;;2.70;1.80;;;;;;;;;;5083075;28;20261;-81
2022/01/01 08:01:10;;;;;;;4.15;1.70;;;;;;;;;;5083329;28;20046;-79
2022/01/01 08:03:36;;;;;;;2.33;1.60;;;;;;;;;;5084284;28;20054;-80
2022/01/01 08:06:01;;;;;;;2.40;1.40;;;;;;;;;;5083044;28;20027;-79
2022/01/01 08:08:26;;;;;;;2.75;1.80;;;;;;;;;;5083213;28;20253;-81
2022/01/01 08:10:51;;;;;;;2.33;1.55;;;;;;;;;;5082467;28;20028;-80
2022/01/01 08:13:24;;;;;;;3.92;1.85;;;;;;;;;;5083224;28;20028;-79
2022/01/01 08:15:51;;;;;;;2.38;1.60;;;;;;;;;;5082089;28;20021;-79
2022/01/01 08:18:17;;;;;;;2.95;1.65;;;;;;;;;;5082971;28;20066;-79
2022/01/01 08:20:43;;;;;;;4.53;2.10;;;;;;;;;;5081737;28;20021;-79
2022/01/01 08:23:08;;;;;;;2.08;1.42;;;;;;;;;;5082563;28;20058;-81
2022/01/01 08:25:34;;;;;;;3.38;1.90;;;;;;;;;;5081060;28;20028;-79
2022/01/01 08:27:59;;;;;;;2.83;1.60;;;;;;;;;;5083396;28;20024;-80
2022/01/01 08:30:24;;;;;;;3.22;1.63;;;;;;;;;;5083119;28;20060;-79
2022/01/01 08:32:50;;;;;;;3.47;1.67;;;;;;;;;;5083464;28;20036;-80
2022/01/01 08:35:15;;;;;;;3.47;1.48;;;;;;;;;;5081460;28;20028;-80
2022/01/01 08:37:41;;;;;;;3.90;1.50;;;;;;;;;;5082227;28;20032;-79
2022/01/01 08:40:07;;;;;;;3.65;1.65;;;;;;;;;;5082928;28;20029;-79
2022/01/01 08:42:33;;;;;;;2.60;1.73;;;;;;;;;;5083197;28;20032;-78
2022/01/01 08:44:58;;;;;;;3.42;1.70;;;;;;;;;;5083410;28;20021;-80
2022/01/01 08:47:26;;;;;;;4.13;1.48;;;;;;;;;;5082732;28;20085;-79
2022/01/01 08:49:55;;;;;;;2.97;1.80;;;;;;;;;;5083567;28;20146;-81
2022/01/01 08:52:22;;;;;;;2.78;1.70;;;;;;;;;;5080535;28;20370;-80
2022/01/01 08:54:48;;;;;;;3.97;1.50;;;;;;;;;;5082141;28;20025;-79
2022/01/01 08:57:14;;;;;;;3.95;1.55;;;;;;;;;;5082975;28;20035;-79
2022/01/01 08:59:40;;;;;;;5.20;1.75;;;;;;;;;;5082701;28;20047;-80
2022/01/01 09:02:05;;;;;;;5.03;1.80;;;;;;;;;;5082151;28;20024;-79
2022/01/01 09:04:30;;;;;;;3.00;1.70;;;;;;;;;;5081358;28;20302;-78
2022/01/01 09:06:56;;;;;;;3.13;1.70;;;;;;;;;;5081556;28;20021;-80
2022/01/01 09:09:21;;;;;;;2.72;1.50;;;;;;;;;;5081510;28;20067;-79
2022/01/01 09:11:46;;;;;;;3.33;1.50;;;;;;;;;;5081291;28;20025;-77
2022/01/01 09:14:12;;;;;;;3.50;1.70;;;;;;;;;;5081308;28;20281;-79
2022/01/01 09:16:37;;;;;;;2.17;1.40;;;;;;;;;;5080027;28;20485;-78
2022/01/01 09:19:05;;;;;;;5.82;1.65;;;;;;;;;;5079194;28;20025;-78
2022/01/01 09:21:30;;;;;;;4.07;1.65;;;;;;;;;;5081029;28;20020;-80
2022/01/01 09:23:55;;;;;;;1.85;1.40;;;;;;;;;;5081191;28;20048;-80
2022/01/01 09:26:21;;;;;;;3.13;1.55;;;;;;;;;;5081290;28;20063;-78
2022/01/01 09:28:46;;;;;;;4.22;1.73;;;;;;;;;;5079033;28;20017;-78
2022/01/01 09:31:11;;;;;;;2.72;1.45;;;;;;;;;;5080554;28;20137;-80
2022/01/01 09:33:37;;;;;;;3.38;1.50;;;;;;;;;;5081595;28;20033;-80
2022/01/01 09:36:04;;;;;;;3.08;1.58;;;;;;;;;;5079323;28;20060;-80
2022/01/01 09:38:31;;;;;;;3.40;1.35;;;;;;;;;;5080264;28;20062;-80
2022/01/01 09:40:57;;;;;;;4.95;1.50;;;;;;;;;;5080661;28;20366;-80
2022/01/01 09:43:24;;;;;;;4.20;1.73;;;;;;;;;;5080434;28;20099;-80
2022/01/01 09:45:51;;;;;;;2.92;1.60;;;;;;;;;;5079396;28;20024;-81
2022/01/01 09:48:19;;;;;;;3.95;1.75;;;;;;;;;;5079882;28;20035;-80
2022/01/01 09:50:48;;;;;;;3.60;1.40;;;;;;;;;;5079521;28;20020;-79
2022/01/01 09:53:13;;;;;;;4.30;1.63;;;;;;;;;;5080287;28;20017;-80
2022/01/01 09:55:38;;;;;;;3.97;1.63;;;;;;;;;;5078852;28;20025;-80
2022/01/01 09:58:04;;;;;;;3.00;1.75;;;;;;;;;;5080000;28;20032;-79
2022/01/01 10:00:29;;;;;;;4.13;1.67;;;;;;;;;;5081055;28;20024;-79
2022/01/01 10:02:55;;;;;;;3.07;1.33;;;;;;;;;;5081867;28;20060;-79
2022/01/01 10:05:21;;;;;;;2.88;1.42;;;;;;;;;;5080859;28;20249;-79
2022/01/01 10:07:46;;;;;;;3.75;1.60;;;;;;;;;;5080089;28;20047;-80
2022/01/01 10:10:19;;;;;;;2.50;1.45;;;;;;;;;;5080158;28;20017;-78
2022/01/01 10:12:45;;;;;;;3.75;1.50;;;;;;;;;;5079248;28;20436;-79
2022/01/01 10:15:11;;;;;;;2.55;1.42;;;;;;;;;;5080410;28;20039;-80
2022/01/01 10:17:37;;;;;;;3.63;1.58;;;;;;;;;;5078862;28;20096;-79
2022/01/01 10:20:03;;;;;;;2.90;1.38;;;;;;;;;;5079698;28;20056;-79
2022/01/01 10:22:29;;;;;;;5.30;1.80;;;;;;;;;;5079008;28;20052;-81
2022/01/01 10:28:05;;;;;;;2.72;1.70;;;;;;;;;;5079616;28;20070;-79
2022/01/01 10:30:36;;;;;;;3.75;1.70;;;;;;;;;;5079141;28;20125;-79
2022/01/01 10:33:08;;;;;;;4.25;1.45;;;;;;;;;;5080205;28;20025;-79
2022/01/01 10:35:38;;;;;;;4.03;1.75;;;;;;;;;;5076515;28;20025;-80
2022/01/01 10:38:17;;;;;;;4.32;1.52;;;;;;;;;;5077019;28;20040;-79
2022/01/01 10:40:44;;;;;;;3.33;1.90;;;;;;;;;;5078004;28;20362;-79
2022/01/01 10:43:10;;;;;;;5.55;1.67;;;;;;;;;;5077241;28;20469;-77
2022/01/01 10:45:41;;;;;;;4.18;1.75;;;;;;;;;;5079485;28;20024;-78
2022/01/01 10:48:17;;;;;;;3.15;1.73;;;;;;;;;;5083086;28;20024;-78
2022/01/01 10:50:45;;;;;;;4.43;1.77;;;;;;;;;;5082593;28;20111;-78
2022/01/01 10:53:15;;;;;;;5.13;1.77;;;;;;;;;;5083372;28;20028;-79
2022/01/01 10:55:45;;;;;;;3.65;1.73;;;;;;;;;;5081354;28;20020;-80
2022/01/01 10:58:19;;;;;;;6.38;2.33;;;;;;;;;;5082714;28;20028;-78
2022/01/01 11:00:47;;;;;;;2.55;1.60;;;;;;;;;;5082080;28;20024;-79
2022/01/01 11:03:18;;;;;;;4.20;1.73;;;;;;;;;;5082683;28;20099;-78
2022/01/01 11:05:45;;;;;;;3.92;1.98;;;;;;;;;;5081180;28;20028;-79
2022/01/01 11:08:10;;;;;;;3.05;1.73;;;;;;;;;;5083217;28;20020;-79
2022/01/01 11:10:37;;;;;;;4.20;1.83;;;;;;;;;;5083519;28;20446;-81
2022/01/01 11:13:04;;;;;;;2.85;1.63;;;;;;;;;;5081447;28;20115;-78
2022/01/01 11:15:30;;;;;;;3.13;1.63;;;;;;;;;;5081403;28;20063;-79
2022/01/01 11:17:57;;;;;;;5.80;1.70;;;;;;;;;;5082052;28;20089;-79
2022/01/01 11:20:23;;;;;;;4.32;1.92;;;;;;;;;;5082405;28;20204;-79
2022/01/01 11:22:49;;;;;;;4.35;1.75;;;;;;;;;;5080111;28;20044;-79
2022/01/01 11:25:17;;;;;;;4.00;1.92;;;;;;;;;;5081589;28;20036;-79
2022/01/01 11:27:44;;;;;;;4.32;1.90;;;;;;;;;;5079471;28;20078;-80
2022/01/01 11:30:11;;;;;;;4.55;1.92;;;;;;;;;;5081863;28;20449;-81
2022/01/01 11:32:39;;;;;;;6.03;2.13;;;;;;;;;;5081939;28;20067;-79
2022/01/01 11:35:10;;;;;;;4.05;2.00;;;;;;;;;;5080498;28;20063;-79
2022/01/01 11:38:07;;;;;;;5.25;2.42;;;;;;;;;;5081849;28;20028;-78
2022/01/01 11:40:41;;;;;;;3.75;1.90;;;;;;;;;;5082998;28;20561;-79
2022/01/01 11:43:06;;;;;;;;;;;;;;;;;;5083128;28;20028;-79
2022/01/01 11:45:45;;;;;;;4.72;1.90;;;;;;;;;;5081752;28;19961;-78
2022/01/01 11:48:44;;;;;;;6.82;1.90;;;;;;;;;;5082836;28;20429;-81
2022/01/01 11:51:35;;;;;;;5.35;2.15;;;;;;;;;;5066688;28;20085;-80
2022/01/01 11:54:05;;;;;;;5.68;2.30;;;;;;;;;;5083512;28;20115;-80
2022/01/01 11:56:49;;;;;;;7.47;2.03;;;;;;;;;;5082759;28;20024;-80
2022/01/01 11:59:21;;;;;;;4.97;1.98;;;;;;;;;;5083934;28;20501;-80
2022/01/01 12:01:48;;;;;;;10.48;2.17;;;;;;;;;;5082504;28;20084;-80
2022/01/01 12:04:33;;;;;;;4.38;2.00;;;;;;;;;;5082958;28;20500;-79
2022/01/01 12:07:18;;;;;;;7.25;1.95;;;;;;;;;;5083404;28;20024;-80
2022/01/01 12:10:03;;;;;;;5.43;2.20;;;;;;;;;;5071739;28;20044;-79
2022/01/01 12:12:59;;;;;;;5.63;1.90;;;;;;;;;;5084054;28;20120;-79
2022/01/01 12:15:26;;;;;;;5.00;1.98;;;;;;;;;;5082786;28;20052;-80
2022/01/01 12:17:57;;;;;;;6.20;1.92;;;;;;;;;;5082678;28;20465;-79
2022/01/01 12:20:46;;;;;;;7.63;1.85;;;;;;;;;;5083613;28;20028;-79
2022/01/01 12:23:15;;;;;;;5.10;1.70;;;;;;;;;;5082067;28;20070;-80
2022/01/01 12:25:41;;;;;;;7.28;1.83;;;;;;;;;;5079894;28;20028;-80
2022/01/01 12:28:09;;;;;;;5.75;2.60;;;;;;;;;;5082778;28;20024;-80
2022/01/01 12:30:47;;;;;;;6.57;2.05;;;;;;;;;;5083202;28;20057;-80
2022/01/01 12:33:41;;;;;;;5.75;2.10;;;;;;;;;;5082399;28;20028;-80
2022/01/01 12:36:09;;;;;;;4.70;1.88;;;;;;;;;;5081864;28;20029;-81
2022/01/01 12:38:39;;;;;;;5.10;1.90;;;;;;;;;;5082370;28;20064;-80
2022/01/01 12:41:07;;;;;;;5.32;2.20;;;;;;;;;;5081555;28;20028;-80
2022/01/01 12:43:50;;;;;;;6.13;1.95;;;;;;;;;;5080504;28;20024;-81
2022/01/01 12:46:18;;;;;;;4.72;2.05;;;;;;;;;;5080811;28;20016;-81
2022/01/01 12:48:44;;;;;;;4.95;2.20;;;;;;;;;;5079108;28;20435;-79
2022/01/01 12:51:12;;;;;;;7.10;2.17;;;;;;;;;;5078093;28;20052;-79
2022/01/01 12:53:40;;;;;;;6.00;2.22;;;;;;;;;;5080194;28;20039;-78
2022/01/01 12:56:14;;;;;;;6.40;2.00;;;;;;;;;;5078113;28;20067;-78
2022/01/01 12:58:45;;;;;;;5.03;2.15;;;;;;;;;;5084816;28;20032;-80
2022/01/01 13:01:24;;;;;;;6.25;2.03;;;;;;;;;;5083203;28;20054;-80
2022/01/01 13:03:51;;;;;;;5.68;2.28;;;;;;;;;;5083800;28;20028;-80
2022/01/01 13:06:38;;;;;;;6.97;2.20;;;;;;;;;;5080083;28;20017;-80
2022/01/01 13:09:08;;;;;;;7.60;2.38;;;;;;;;;;5078983;28;20058;-78
2022/01/01 13:11:35;;;;;;;4.65;2.03;;;;;;;;;;5077528;28;20078;-79
2022/01/01 13:14:00;;;;;;;7.57;2.50;;;;;;;;;;5079937;28;20016;-80
2022/01/01 13:16:27;;;;;;;6.95;2.30;;;;;;;;;;5080579;28;20051;-79
2022/01/01 13:18:52;;;;;;;5.65;2.28;;;;;;;;;;5079824;28;20020;-79
2022/01/01 13:21:21;;;;;;;5.45;2.30;;;;;;;;;;5077744;28;20020;-79
2022/01/01 13:23:50;;;;;;;10.23;2.80;;;;;;;;;;5079996;28;20024;-80
2022/01/01 13:26:16;;;;;;;5.88;2.22;;;;;;;;;;5079777;28;20035;-79
2022/01/01 13:28:41;;;;;;;5.75;2.25;;;;;;;;;;5080278;28;20051;-79
2022/01/01 13:31:11;;;;;;;6.20;2.30;;;;;;;;;;5078657;28;20024;-77
2022/01/01 13:33:51;;;;;;;6.75;2.42;;;;;;;;;;5079061;28;20094;-80
2022/01/01 13:36:42;;;;;;;7.32;2.47;;;;;;;;;;5080387;28;20050;-79
2022/01/01 13:39:09;;;;;;;8.52;2.58;;;;;;;;;;5079511;28;20054;-80
2022/01/01 13:41:36;;;;;;;9.50;3.15;;;;;;;;;;5080326;28;20070;-80
2022/01/01 13:44:21;;;;;;;10.13;2.50;;;;;;;;;;5081230;28;20063;-79
2022/01/01 13:46:48;;;;;;;8.07;2.10;;;;;;;;;;5080967;28;20439;-78
2022/01/01 13:49:13;;;;;;;5.82;2.50;;;;;;;;;;5078310;28;20103;-79
2022/01/01 13:51:39;;;;;;;10.07;2.42;;;;;;;;;;5080268;28;20490;-79
2022/01/01 13:54:10;;;;;;;6.72;2.28;;;;;;;;;;5078987;28;20025;-79
2022/01/01 13:56:37;;;;;;;7.43;2.60;;;;;;;;;;5080461;28;20032;-79
2022/01/01 13:59:04;;;;;;;9.40;2.83;;;;;;;;;;5079907;28;20367;-81
2022/01/01 14:01:31;;;;;;;8.75;2.83;;;;;;;;;;5079983;28;20040;-79
2022/01/01 14:03:57;;;;;;;7.05;2.53;;;;;;;;;;5079364;28;20032;-78
2022/01/01 14:06:27;;;;;;;5.85;2.72;;;;;;;;;;5080502;28;20054;-78
2022/01/01 14:09:04;;;;;;;6.80;2.85;;;;;;;;;;5079194;28;20517;-80
2022/01/01 14:11:36;;;;;;;6.28;2.70;;;;;;;;;;5079898;28;20028;-79
2022/01/01 14:14:02;;;;;;;4.35;2.38;;;;;;;;;;5078355;28;20066;-80
2022/01/01 14:16:30;;;;;;;8.65;3.13;;;;;;;;;;5078221;28;20027;-79
2022/01/01 14:18:55;;;;;;;4.40;2.72;;;;;;;;;;5078618;28;20424;-80
2022/01/01 14:21:24;;;;;;;8.75;2.47;;;;;;;;;;5079572;28;20077;-79
2022/01/01 14:23:52;;;;;;;7.35;2.83;;;;;;;;;;5079943;28;20035;-80
2022/01/01 14:26:25;;;;;;;5.85;2.70;;;;;;;;;;5079988;28;20032;-79
2022/01/01 14:28:51;;;;;;;7.32;2.72;;;;;;;;;;5062792;28;20024;-78
2022/01/01 14:31:18;;;;;;;7.18;3.47;;;;;;;;;;5080077;28;20052;-78
2022/01/01 14:33:44;;;;;;;8.25;3.08;;;;;;;;;;5080192;28;20025;-79
2022/01/01 14:36:12;;;;;;;7.72;2.85;;;;;;;;;;5079782;28;20565;-78
2022/01/01 14:38:39;;;;;;;8.52;3.40;;;;;;;;;;5077666;28;20030;-80
2022/01/01 14:41:06;;;;;;;6.32;2.92;;;;;;;;;;5080116;28;20107;-79
2022/01/01 14:43:32;;;;;;;5.78;3.05;;;;;;;;;;5080152;28;20036;-78
2022/01/01 14:45:58;;;;;;;5.60;2.72;;;;;;;;;;5080043;28;20024;-79
2022/01/01 14:48:47;;;;;;;8.73;3.10;;;;;;;;;;5078977;28;20024;-79
2022/01/01 14:51:44;;;;;;;5.65;2.78;;;;;;;;;;5080996;28;20031;-80
2022/01/01 14:54:36;;;;;;;8.68;3.00;;;;;;;;;;5080076;28;20038;-79